createdAt,value
2022-10-13T03:55:19.437Z,40.70
2022-10-13T03:58:43.490Z,39.30
2022-10-13T04:02:07.287Z,40.60
2022-10-13T04:05:33.507Z,41.10
2022-10-13T04:08:57.799Z,41.50
2022-10-13T04:12:21.499Z,39.40
2022-10-13T04:15:44.775Z,38.20
2022-10-13T04:19:11.793Z,41.30
2022-10-13T04:22:35.792Z,40.80
2022-10-13T04:25:58.991Z,39.40
2022-10-13T04:29:23.217Z,39.80
2022-10-13T04:32:48.920Z,40.90
2022-10-13T04:36:15.141Z,38.90
2022-10-13T04:39:38.348Z,39.00
2022-10-13T04:43:01.707Z,44.10
2022-10-13T04:46:26.746Z,41.40
2022-10-13T04:49:50.904Z,48.00
2022-10-13T04:53:19.072Z,48.00
2022-10-13T04:56:45.005Z,48.30
2022-10-13T05:00:10.679Z,51.80
2022-10-13T05:03:34.412Z,50.00
2022-10-13T05:07:18.060Z,47.70
2022-10-13T05:10:41.311Z,47.90
2022-10-13T05:14:04.685Z,47.90
2022-10-13T05:17:35.101Z,48.10
2022-10-13T05:21:07.952Z,52.40
2022-10-13T05:24:36.430Z,52.70
2022-10-13T05:27:59.853Z,56.40
2022-10-13T05:31:25.977Z,53.50
2022-10-13T05:34:50.172Z,51.70
2022-10-13T05:38:13.273Z,53.80
2022-10-13T05:41:38.711Z,48.20
2022-10-13T05:45:03.749Z,49.20
2022-10-13T05:48:27.910Z,49.70
2022-10-13T05:51:54.282Z,49.80
2022-10-13T05:55:19.638Z,47.20
2022-10-13T05:58:47.146Z,46.90
2022-10-13T06:02:14.676Z,43.00
2022-10-13T06:05:40.082Z,39.80
2022-10-13T06:09:03.544Z,37.10
2022-10-13T06:12:26.694Z,35.90
2022-10-13T06:15:52.738Z,34.90
2022-10-13T06:19:17.000Z,34.30
2022-10-13T06:22:40.307Z,33.00
2022-10-13T06:26:03.735Z,31.70
2022-10-13T06:29:28.353Z,32.40
2022-10-13T06:32:53.256Z,31.70
2022-10-13T06:36:16.507Z,33.60
2022-10-13T06:39:40.432Z,31.80
2022-10-13T06:43:04.363Z,29.40
2022-10-13T06:46:28.873Z,29.40
2022-10-13T06:49:52.292Z,30.00
2022-10-13T06:53:15.764Z,29.60
2022-10-13T06:56:39.020Z,29.10
2022-10-13T07:00:08.908Z,29.00
2022-10-13T07:03:32.644Z,27.80
2022-10-13T07:06:56.509Z,27.50
2022-10-13T07:10:19.772Z,28.60
2022-10-13T07:13:46.633Z,28.50
2022-10-13T07:17:12.449Z,26.20
2022-10-13T07:20:36.055Z,24.70
2022-10-13T07:23:59.522Z,25.10
2022-10-13T07:27:25.156Z,27.90
2022-10-13T07:30:49.215Z,30.80
2022-10-13T07:34:12.505Z,41.00
2022-10-13T07:37:36.111Z,26.40
2022-10-13T07:41:01.644Z,24.80
2022-10-13T07:44:25.990Z,24.10
2022-10-13T07:47:49.327Z,23.00
2022-10-13T07:51:13.362Z,22.30
2022-10-13T07:54:36.785Z,22.20
2022-10-13T07:58:03.155Z,24.00
2022-10-13T08:01:29.590Z,27.80
2022-10-13T08:04:53.272Z,24.70
2022-10-13T08:08:16.551Z,25.40
2022-10-13T08:11:40.168Z,23.20
2022-10-13T08:15:06.334Z,23.90
2022-10-13T08:18:30.725Z,21.10
2022-10-13T08:21:59.623Z,19.90
2022-10-13T08:25:23.538Z,20.70
2022-10-13T08:29:02.852Z,19.50
2022-10-13T08:32:26.729Z,20.50
2022-10-13T08:35:51.307Z,19.10
2022-10-13T08:39:15.455Z,18.70
2022-10-13T08:42:43.984Z,18.00
2022-10-13T08:46:10.571Z,17.90
2022-10-13T08:49:34.688Z,17.20
2022-10-13T08:53:00.732Z,18.40
2022-10-13T08:56:27.487Z,16.00
2022-10-13T08:59:53.186Z,16.30
2022-10-13T09:03:23.995Z,17.20
2022-10-13T09:06:52.838Z,16.60
2022-10-13T09:10:18.881Z,17.00
2022-10-13T09:13:42.557Z,15.30
2022-10-13T09:17:17.930Z,15.30
2022-10-13T09:20:41.997Z,15.00
2022-10-13T09:24:11.688Z,13.60
2022-10-13T09:31:11.587Z,14.20
2022-10-13T09:34:37.586Z,13.80
2022-10-13T09:38:10.142Z,15.60
2022-10-13T09:41:34.056Z,13.70
2022-10-13T09:45:00.745Z,13.70
2022-10-13T09:48:29.782Z,13.80
2022-10-13T09:51:58.886Z,14.00
2022-10-13T09:55:32.844Z,13.30
2022-10-13T09:59:05.664Z,12.60
2022-10-13T10:02:33.857Z,12.70
2022-10-13T10:06:00.617Z,12.20
2022-10-13T10:09:34.635Z,11.50
2022-10-13T10:12:57.919Z,12.00
2022-10-13T10:16:30.625Z,11.20
2022-10-13T10:20:03.357Z,11.10
2022-10-13T10:23:37.566Z,11.10
2022-10-13T10:27:05.678Z,11.50
2022-10-13T10:30:31.054Z,11.40
2022-10-13T10:34:06.184Z,11.10
2022-10-13T10:37:55.107Z,10.70
2022-10-13T10:41:36.013Z,11.30
2022-10-13T10:45:03.091Z,10.00
2022-10-13T10:48:32.704Z,11.40
2022-10-13T10:55:25.408Z,10.20
2022-10-13T10:59:00.358Z,10.30
2022-10-13T11:02:42.431Z,10.00
2022-10-13T11:06:21.422Z,9.60
2022-10-13T11:10:16.970Z,10.70
2022-10-13T11:13:52.047Z,10.10
2022-10-13T11:17:18.980Z,9.20
2022-10-13T11:20:58.819Z,9.50
2022-10-13T11:28:42.830Z,9.60
2022-10-13T11:32:55.183Z,10.00
2022-10-13T11:36:50.824Z,10.20
2022-10-13T11:40:24.918Z,9.90
2022-10-13T11:43:55.675Z,9.00
2022-10-13T11:47:43.558Z,10.20
2022-10-13T11:51:20.313Z,9.50
2022-10-13T11:54:50.864Z,9.90
2022-10-13T11:58:18.674Z,11.00
2022-10-13T12:01:45.082Z,10.30
2022-10-13T12:05:22.080Z,10.20
2022-10-13T12:08:49.736Z,9.50
2022-10-13T12:12:16.987Z,10.80
2022-10-13T12:15:43.062Z,9.70
2022-10-13T12:19:20.290Z,9.20
2022-10-13T12:22:49.016Z,9.70
2022-10-13T12:26:17.498Z,9.40
2022-10-13T12:29:41.009Z,8.60
2022-10-13T12:33:19.119Z,10.70
2022-10-13T12:36:45.396Z,9.00
2022-10-13T12:40:15.138Z,9.10
2022-10-13T12:43:39.485Z,8.70
2022-10-13T12:47:03.815Z,9.70
2022-10-13T12:50:37.970Z,10.70
2022-10-13T12:54:05.625Z,9.30
2022-10-13T12:57:35.359Z,9.40
2022-10-13T13:01:08.322Z,9.90
2022-10-13T13:04:40.987Z,9.10
2022-10-13T13:08:19.862Z,10.60
2022-10-13T13:11:43.242Z,9.50
2022-10-13T13:15:36.925Z,10.80
2022-10-13T13:19:00.266Z,9.20
2022-10-13T13:22:25.530Z,9.80
2022-10-13T13:25:59.314Z,10.20
2022-10-13T13:29:22.999Z,9.50
2022-10-13T13:32:46.718Z,9.70
2022-10-13T13:36:17.690Z,8.90
2022-10-13T13:39:42.828Z,8.10
2022-10-13T13:43:08.051Z,9.90
2022-10-13T13:46:31.926Z,9.90
2022-10-13T13:49:56.517Z,9.60
2022-10-13T13:53:20.081Z,8.90
2022-10-13T13:56:43.603Z,8.50
2022-10-13T14:00:10.274Z,9.10
2022-10-13T14:03:35.211Z,9.70
2022-10-13T14:07:01.077Z,9.80
2022-10-13T14:10:26.044Z,9.70
2022-10-13T14:13:49.525Z,10.30
2022-10-13T14:17:20.662Z,9.60
2022-10-13T14:20:44.115Z,9.10
2022-10-13T14:24:09.721Z,9.40
2022-10-13T14:27:36.024Z,8.90
2022-10-13T14:30:59.765Z,9.50
2022-10-13T14:34:23.583Z,9.70
2022-10-13T14:37:46.911Z,9.90
2022-10-13T14:41:10.231Z,8.60
2022-10-13T14:44:34.015Z,8.80
2022-10-13T14:47:57.318Z,8.80
2022-10-13T14:51:20.984Z,9.40
2022-10-13T14:54:45.188Z,8.20
2022-10-13T14:58:09.078Z,9.20
2022-10-13T15:01:33.150Z,9.30
2022-10-13T15:04:57.403Z,9.30
2022-10-13T15:08:20.901Z,9.40
2022-10-13T15:11:45.659Z,9.50
2022-10-13T15:15:10.942Z,9.50
2022-10-13T15:18:35.894Z,9.90
2022-10-13T15:21:59.704Z,9.30
2022-10-13T15:25:23.584Z,10.60
2022-10-13T15:28:49.098Z,11.00
2022-10-13T15:32:17.514Z,11.50
2022-10-13T15:35:48.109Z,11.30
2022-10-13T15:39:11.595Z,12.60
2022-10-13T15:42:34.962Z,13.50
2022-10-13T15:46:02.175Z,13.60
2022-10-13T15:49:26.049Z,22.20
2022-10-13T15:52:49.727Z,15.70
2022-10-13T15:56:12.929Z,12.70
2022-10-13T15:59:36.228Z,14.90
2022-10-13T16:02:59.480Z,16.80
2022-10-13T16:06:22.790Z,18.80
2022-10-13T16:09:46.068Z,18.90
2022-10-13T16:13:13.572Z,19.90
2022-10-13T16:16:36.748Z,23.60
2022-10-13T16:20:00.603Z,26.60
2022-10-13T16:23:24.253Z,28.00
2022-10-13T16:26:47.443Z,30.00
2022-10-13T16:30:12.723Z,30.90
2022-10-13T16:33:36.553Z,30.20
2022-10-13T16:36:59.738Z,59.50
2022-10-13T16:40:23.074Z,61.80
2022-10-13T16:43:47.830Z,42.20
2022-10-13T16:47:13.627Z,33.50
2022-10-13T16:50:40.674Z,31.20
2022-10-13T16:54:05.014Z,34.40
2022-10-13T16:57:30.781Z,31.60
2022-10-13T17:01:01.271Z,28.70
2022-10-13T17:04:24.873Z,27.80
2022-10-13T17:07:48.717Z,31.60
2022-10-13T17:11:17.711Z,32.10
2022-10-13T17:14:41.006Z,33.80
2022-10-13T17:18:04.705Z,34.30
2022-10-13T17:21:28.232Z,34.70
2022-10-13T17:24:51.500Z,36.80
2022-10-13T17:28:15.240Z,36.50
2022-10-13T17:31:38.579Z,33.60
2022-10-13T17:35:02.355Z,41.90
2022-10-13T17:38:25.669Z,34.70
2022-10-13T17:41:48.970Z,30.30
2022-10-13T17:45:13.102Z,28.90
2022-10-13T17:48:37.026Z,28.00
2022-10-13T17:52:00.931Z,27.30
2022-10-13T17:55:24.713Z,27.80
2022-10-13T17:58:49.009Z,28.50
2022-10-13T18:02:13.977Z,30.40
2022-10-13T18:05:42.087Z,31.30
2022-10-13T18:09:07.784Z,34.70
2022-10-13T18:12:31.397Z,33.40
2022-10-13T18:15:55.213Z,35.40
2022-10-13T18:19:19.972Z,34.70
2022-10-13T18:22:43.319Z,34.00
2022-10-13T18:26:11.204Z,33.10
2022-10-13T18:31:16.161Z,31.30
2022-10-13T18:34:42.953Z,28.90
2022-10-13T18:38:09.639Z,28.60
2022-10-13T18:41:39.670Z,27.60
2022-10-13T18:45:07.855Z,25.00
2022-10-13T18:48:36.931Z,25.30
2022-10-13T18:52:04.550Z,25.70
2022-10-13T18:55:31.344Z,25.80
2022-10-13T18:59:00.266Z,25.60
2022-10-13T19:02:27.970Z,26.20
2022-10-13T19:05:54.819Z,29.20
2022-10-13T19:09:24.223Z,30.60
2022-10-13T19:12:50.947Z,32.10
2022-10-13T19:16:23.116Z,31.60
2022-10-13T19:19:49.942Z,33.70
2022-10-13T19:23:18.262Z,31.50
2022-10-13T19:26:44.903Z,34.70
2022-10-13T19:30:14.269Z,33.50
2022-10-13T19:33:44.668Z,34.40
2022-10-13T19:37:11.901Z,33.70
2022-10-13T19:40:42.476Z,37.70
2022-10-13T19:44:09.460Z,35.50
2022-10-13T19:51:06.592Z,31.80
2022-10-13T19:54:35.863Z,31.00
2022-10-13T19:58:02.767Z,34.20
2022-10-13T20:01:29.657Z,34.20
2022-10-13T20:04:57.428Z,32.80
2022-10-13T20:08:24.408Z,32.40
2022-10-13T20:11:52.110Z,32.40
2022-10-13T20:15:18.923Z,31.40
2022-10-13T20:18:46.860Z,31.10
2022-10-13T20:22:13.762Z,33.70
2022-10-13T20:25:40.731Z,36.70
2022-10-13T20:29:07.385Z,37.50
2022-10-13T20:32:34.619Z,34.70
2022-10-13T20:36:03.299Z,35.80
2022-10-13T20:39:30.126Z,35.70
2022-10-13T20:42:56.722Z,39.10
2022-10-13T20:46:25.149Z,38.90
2022-10-13T20:49:52.720Z,41.00
2022-10-13T20:53:19.508Z,39.30
2022-10-13T20:56:49.392Z,43.40
2022-10-13T21:00:16.999Z,38.80
2022-10-13T21:03:44.365Z,36.60
2022-10-13T21:07:11.766Z,39.10
2022-10-13T21:10:39.781Z,39.60
2022-10-13T21:14:09.684Z,37.90
2022-10-13T21:17:42.521Z,38.90
2022-10-13T21:21:12.392Z,36.10
2022-10-13T21:24:41.185Z,38.90
2022-10-13T21:28:08.695Z,37.60
2022-10-13T21:31:36.950Z,40.80
2022-10-13T21:35:04.141Z,41.30
2022-10-13T21:38:30.929Z,41.10
2022-10-13T21:41:57.740Z,41.30
2022-10-13T21:45:26.308Z,39.60
2022-10-13T21:48:56.612Z,39.30
2022-10-13T21:52:23.654Z,39.20
2022-10-13T21:55:50.338Z,38.90
2022-10-13T21:59:17.024Z,38.70
2022-10-13T22:02:43.594Z,40.10
2022-10-13T22:06:18.295Z,41.40
2022-10-13T22:09:45.919Z,38.70
2022-10-13T22:13:12.699Z,37.60
2022-10-13T22:16:42.193Z,39.40
2022-10-13T22:20:10.535Z,39.20
2022-10-13T22:23:37.641Z,40.50
2022-10-13T22:27:04.259Z,39.90
2022-10-13T22:30:31.085Z,41.00
2022-10-13T22:33:58.347Z,38.50
2022-10-13T22:37:24.922Z,41.40
2022-10-13T22:40:51.564Z,41.30
2022-10-13T22:44:18.800Z,42.00
2022-10-13T22:47:45.391Z,43.20
